Hawk Springs, Wyoming
Current Conditions -  °F | °C
As of 8:53 AM on Friday 24 Oct 2014 (Local Time) from KTOR Reporting Station
Clear Clear  
Wind Chill: 61°   Ceiling: Unl
Heat Index: 61°   Visibility: 10mi
Dew Point: 34°   Wind: 8mph
Humidity: 36%   Direction: 260°W
Pressure: 30.08"   Gusts: NA
Location:  41.79°N, 104.27°W
Report Text: KTOR 241453Z AUTO 26007KT 10SM CLR 16/01 A3008 RMK AO2 SLP158 T01610011 53016
Loading
Personal Weather Stations






























Interactive Weather Map
Tropical Storm Tracking
New forecast layout! Learn more

10-Day Weather Forecast

Advertisements
Track Severe Weather on mobile